sensor_id;sensor_type;location;lat;lon;timestamp;P1;durP1;ratioP1;P2;durP2;ratioP2
80231;SDS011;70197;42.124;24.752;2023-08-24T00:01:41;15.05;;;8.32;;
80231;SDS011;70197;42.124;24.752;2023-08-24T00:04:07;13.20;;;8.27;;
80231;SDS011;70197;42.124;24.752;2023-08-24T00:06:33;11.88;;;7.97;;
80231;SDS011;70197;42.124;24.752;2023-08-24T00:08:59;15.23;;;7.97;;
80231;SDS011;70197;42.124;24.752;2023-08-24T00:11:25;11.45;;;7.82;;
80231;SDS011;70197;42.124;24.752;2023-08-24T00:13:50;10.82;;;8.25;;
80231;SDS011;70197;42.124;24.752;2023-08-24T00:16:17;12.60;;;8.40;;
80231;SDS011;70197;42.124;24.752;2023-08-24T00:18:44;11.90;;;8.80;;
80231;SDS011;70197;42.124;24.752;2023-08-24T00:21:10;13.30;;;8.25;;
80231;SDS011;70197;42.124;24.752;2023-08-24T00:23:36;12.07;;;7.93;;
80231;SDS011;70197;42.124;24.752;2023-08-24T00:26:03;13.68;;;7.97;;
80231;SDS011;70197;42.124;24.752;2023-08-24T00:28:29;11.25;;;8.23;;
80231;SDS011;70197;42.124;24.752;2023-08-24T00:30:55;14.90;;;8.45;;
80231;SDS011;70197;42.124;24.752;2023-08-24T00:33:20;14.65;;;7.80;;
80231;SDS011;70197;42.124;24.752;2023-08-24T00:35:46;17.95;;;8.15;;
80231;SDS011;70197;42.124;24.752;2023-08-24T00:38:11;17.17;;;8.52;;
80231;SDS011;70197;42.124;24.752;2023-08-24T00:40:37;11.48;;;7.75;;
80231;SDS011;70197;42.124;24.752;2023-08-24T00:43:04;11.43;;;8.23;;
80231;SDS011;70197;42.124;24.752;2023-08-24T00:45:30;11.80;;;8.23;;
80231;SDS011;70197;42.124;24.752;2023-08-24T00:47:58;15.30;;;7.75;;
80231;SDS011;70197;42.124;24.752;2023-08-24T00:50:24;16.88;;;8.38;;
80231;SDS011;70197;42.124;24.752;2023-08-24T00:52:49;10.38;;;8.07;;
80231;SDS011;70197;42.124;24.752;2023-08-24T00:55:15;10.43;;;8.13;;
80231;SDS011;70197;42.124;24.752;2023-08-24T00:57:42;10.52;;;7.63;;
80231;SDS011;70197;42.124;24.752;2023-08-24T01:00:08;13.32;;;8.27;;
80231;SDS011;70197;42.124;24.752;2023-08-24T01:02:38;10.05;;;7.60;;
80231;SDS011;70197;42.124;24.752;2023-08-24T01:05:04;15.38;;;8.02;;
80231;SDS011;70197;42.124;24.752;2023-08-24T01:07:32;10.18;;;7.75;;
80231;SDS011;70197;42.124;24.752;2023-08-24T01:09:59;11.70;;;7.88;;
80231;SDS011;70197;42.124;24.752;2023-08-24T01:12:50;12.00;;;7.80;;
80231;SDS011;70197;42.124;24.752;2023-08-24T01:17:52;11.38;;;7.65;;
80231;SDS011;70197;42.124;24.752;2023-08-24T01:20:20;14.40;;;8.10;;
80231;SDS011;70197;42.124;24.752;2023-08-24T01:27:59;15.45;;;8.35;;
80231;SDS011;70197;42.124;24.752;2023-08-24T01:30:27;11.00;;;8.43;;
80231;SDS011;70197;42.124;24.752;2023-08-24T01:32:53;10.38;;;7.45;;
80231;SDS011;70197;42.124;24.752;2023-08-24T01:35:19;14.05;;;8.18;;
80231;SDS011;70197;42.124;24.752;2023-08-24T01:37:45;14.70;;;7.50;;
80231;SDS011;70197;42.124;24.752;2023-08-24T01:42:51;13.57;;;8.30;;
80231;SDS011;70197;42.124;24.752;2023-08-24T01:45:20;15.27;;;8.60;;
80231;SDS011;70197;42.124;24.752;2023-08-24T01:47:49;18.15;;;8.63;;
80231;SDS011;70197;42.124;24.752;2023-08-24T01:50:17;14.32;;;8.35;;
80231;SDS011;70197;42.124;24.752;2023-08-24T01:52:43;13.43;;;8.35;;
80231;SDS011;70197;42.124;24.752;2023-08-24T01:55:10;17.25;;;8.05;;
80231;SDS011;70197;42.124;24.752;2023-08-24T01:57:36;17.42;;;8.07;;
80231;SDS011;70197;42.124;24.752;2023-08-24T02:00:03;12.50;;;8.35;;
80231;SDS011;70197;42.124;24.752;2023-08-24T02:02:31;11.48;;;7.70;;
80231;SDS011;70197;42.124;24.752;2023-08-24T02:04:58;13.95;;;8.32;;
80231;SDS011;70197;42.124;24.752;2023-08-24T02:07:24;13.98;;;8.52;;
80231;SDS011;70197;42.124;24.752;2023-08-24T02:09:49;18.48;;;8.10;;
80231;SDS011;70197;42.124;24.752;2023-08-24T02:12:15;12.43;;;8.23;;
80231;SDS011;70197;42.124;24.752;2023-08-24T02:14:40;14.15;;;7.97;;
80231;SDS011;70197;42.124;24.752;2023-08-24T02:17:06;13.52;;;7.95;;
80231;SDS011;70197;42.124;24.752;2023-08-24T02:19:32;10.43;;;8.50;;
80231;SDS011;70197;42.124;24.752;2023-08-24T02:21:57;13.63;;;8.68;;
80231;SDS011;70197;42.124;24.752;2023-08-24T02:24:23;12.27;;;8.88;;
80231;SDS011;70197;42.124;24.752;2023-08-24T02:26:49;13.50;;;8.55;;
80231;SDS011;70197;42.124;24.752;2023-08-24T02:29:14;11.55;;;8.07;;
80231;SDS011;70197;42.124;24.752;2023-08-24T02:31:40;17.65;;;8.45;;
80231;SDS011;70197;42.124;24.752;2023-08-24T02:34:06;15.93;;;8.95;;
80231;SDS011;70197;42.124;24.752;2023-08-24T02:36:31;13.82;;;8.07;;
80231;SDS011;70197;42.124;24.752;2023-08-24T02:38:58;14.20;;;8.02;;
80231;SDS011;70197;42.124;24.752;2023-08-24T02:41:25;11.85;;;8.40;;
80231;SDS011;70197;42.124;24.752;2023-08-24T02:43:51;15.45;;;8.68;;
80231;SDS011;70197;42.124;24.752;2023-08-24T02:46:16;15.10;;;9.07;;
80231;SDS011;70197;42.124;24.752;2023-08-24T02:48:43;14.95;;;8.18;;
80231;SDS011;70197;42.124;24.752;2023-08-24T02:51:09;15.63;;;8.93;;
80231;SDS011;70197;42.124;24.752;2023-08-24T02:53:36;12.27;;;8.10;;
80231;SDS011;70197;42.124;24.752;2023-08-24T02:56:02;16.42;;;8.55;;
80231;SDS011;70197;42.124;24.752;2023-08-24T02:58:28;11.20;;;8.73;;
80231;SDS011;70197;42.124;24.752;2023-08-24T03:00:55;14.70;;;9.23;;
80231;SDS011;70197;42.124;24.752;2023-08-24T03:03:20;11.13;;;8.80;;
80231;SDS011;70197;42.124;24.752;2023-08-24T03:05:56;14.20;;;9.20;;
80231;SDS011;70197;42.124;24.752;2023-08-24T03:08:26;12.15;;;9.43;;
80231;SDS011;70197;42.124;24.752;2023-08-24T03:10:53;11.93;;;9.45;;
80231;SDS011;70197;42.124;24.752;2023-08-24T03:13:19;10.48;;;8.52;;
80231;SDS011;70197;42.124;24.752;2023-08-24T03:15:45;16.17;;;9.05;;
80231;SDS011;70197;42.124;24.752;2023-08-24T03:18:11;16.85;;;9.05;;
80231;SDS011;70197;42.124;24.752;2023-08-24T03:20:38;14.95;;;9.00;;
80231;SDS011;70197;42.124;24.752;2023-08-24T03:23:04;14.80;;;8.93;;
80231;SDS011;70197;42.124;24.752;2023-08-24T03:25:31;20.40;;;9.45;;
80231;SDS011;70197;42.124;24.752;2023-08-24T03:28:00;19.60;;;11.15;;
80231;SDS011;70197;42.124;24.752;2023-08-24T03:30:26;19.45;;;10.50;;
80231;SDS011;70197;42.124;24.752;2023-08-24T03:32:52;12.85;;;9.85;;
80231;SDS011;70197;42.124;24.752;2023-08-24T03:35:18;14.70;;;10.75;;
80231;SDS011;70197;42.124;24.752;2023-08-24T03:37:43;19.88;;;10.02;;
80231;SDS011;70197;42.124;24.752;2023-08-24T03:40:09;15.32;;;10.52;;
80231;SDS011;70197;42.124;24.752;2023-08-24T03:42:35;19.20;;;11.23;;
80231;SDS011;70197;42.124;24.752;2023-08-24T03:45:01;14.68;;;11.13;;
80231;SDS011;70197;42.124;24.752;2023-08-24T03:47:26;17.33;;;11.43;;
80231;SDS011;70197;42.124;24.752;2023-08-24T03:49:52;23.92;;;11.32;;
80231;SDS011;70197;42.124;24.752;2023-08-24T03:52:18;18.40;;;11.38;;
80231;SDS011;70197;42.124;24.752;2023-08-24T03:54:43;17.30;;;11.25;;
80231;SDS011;70197;42.124;24.752;2023-08-24T03:57:09;15.43;;;11.18;;
80231;SDS011;70197;42.124;24.752;2023-08-24T03:59:34;17.05;;;11.45;;
80231;SDS011;70197;42.124;24.752;2023-08-24T04:02:00;20.88;;;11.27;;
80231;SDS011;70197;42.124;24.752;2023-08-24T04:04:28;21.27;;;11.32;;
80231;SDS011;70197;42.124;24.752;2023-08-24T04:06:56;16.75;;;10.93;;
80231;SDS011;70197;42.124;24.752;2023-08-24T04:09:22;16.00;;;10.65;;
80231;SDS011;70197;42.124;24.752;2023-08-24T04:11:48;13.75;;;10.35;;
80231;SDS011;70197;42.124;24.752;2023-08-24T04:14:13;17.80;;;10.25;;
80231;SDS011;70197;42.124;24.752;2023-08-24T04:16:39;17.38;;;10.30;;
80231;SDS011;70197;42.124;24.752;2023-08-24T04:19:06;19.52;;;11.30;;
80231;SDS011;70197;42.124;24.752;2023-08-24T04:21:33;15.63;;;10.52;;
80231;SDS011;70197;42.124;24.752;2023-08-24T04:23:58;20.17;;;11.25;;
80231;SDS011;70197;42.124;24.752;2023-08-24T04:26:24;19.63;;;10.68;;
80231;SDS011;70197;42.124;24.752;2023-08-24T04:28:50;14.82;;;10.82;;
80231;SDS011;70197;42.124;24.752;2023-08-24T04:31:16;19.52;;;10.95;;
80231;SDS011;70197;42.124;24.752;2023-08-24T04:33:41;15.93;;;10.05;;
80231;SDS011;70197;42.124;24.752;2023-08-24T04:36:07;19.13;;;10.95;;
80231;SDS011;70197;42.124;24.752;2023-08-24T04:38:33;22.48;;;10.85;;
80231;SDS011;70197;42.124;24.752;2023-08-24T04:40:59;15.75;;;10.77;;
80231;SDS011;70197;42.124;24.752;2023-08-24T04:43:24;20.80;;;11.57;;
80231;SDS011;70197;42.124;24.752;2023-08-24T04:45:52;30.17;;;11.95;;
80231;SDS011;70197;42.124;24.752;2023-08-24T04:48:19;23.60;;;11.57;;
80231;SDS011;70197;42.124;24.752;2023-08-24T04:50:46;27.02;;;11.48;;
80231;SDS011;70197;42.124;24.752;2023-08-24T04:53:14;26.17;;;12.30;;
80231;SDS011;70197;42.124;24.752;2023-08-24T04:55:41;26.67;;;11.10;;
80231;SDS011;70197;42.124;24.752;2023-08-24T04:58:10;21.50;;;11.98;;
80231;SDS011;70197;42.124;24.752;2023-08-24T05:00:36;16.30;;;11.43;;
80231;SDS011;70197;42.124;24.752;2023-08-24T05:03:05;44.17;;;13.35;;
80231;SDS011;70197;42.124;24.752;2023-08-24T05:05:31;24.73;;;12.25;;
80231;SDS011;70197;42.124;24.752;2023-08-24T05:07:58;43.30;;;13.05;;
80231;SDS011;70197;42.124;24.752;2023-08-24T05:10:25;27.40;;;11.98;;
80231;SDS011;70197;42.124;24.752;2023-08-24T05:12:54;23.98;;;12.02;;
80231;SDS011;70197;42.124;24.752;2023-08-24T05:15:20;27.45;;;11.70;;
80231;SDS011;70197;42.124;24.752;2023-08-24T05:17:46;19.90;;;11.23;;
80231;SDS011;70197;42.124;24.752;2023-08-24T05:20:11;16.70;;;11.20;;
80231;SDS011;70197;42.124;24.752;2023-08-24T05:22:37;44.17;;;13.75;;
80231;SDS011;70197;42.124;24.752;2023-08-24T05:25:03;32.63;;;12.50;;
80231;SDS011;70197;42.124;24.752;2023-08-24T05:27:32;46.25;;;12.70;;
80231;SDS011;70197;42.124;24.752;2023-08-24T05:29:58;49.08;;;14.32;;
80231;SDS011;70197;42.124;24.752;2023-08-24T05:32:23;40.15;;;13.20;;
80231;SDS011;70197;42.124;24.752;2023-08-24T05:34:49;47.72;;;13.48;;
80231;SDS011;70197;42.124;24.752;2023-08-24T05:37:15;37.92;;;12.70;;
80231;SDS011;70197;42.124;24.752;2023-08-24T05:39:41;46.90;;;13.80;;
80231;SDS011;70197;42.124;24.752;2023-08-24T05:42:07;47.08;;;13.63;;
80231;SDS011;70197;42.124;24.752;2023-08-24T05:44:33;32.05;;;13.55;;
80231;SDS011;70197;42.124;24.752;2023-08-24T05:46:59;31.08;;;12.63;;
80231;SDS011;70197;42.124;24.752;2023-08-24T05:49:25;40.15;;;13.23;;
80231;SDS011;70197;42.124;24.752;2023-08-24T05:51:51;35.78;;;13.60;;
80231;SDS011;70197;42.124;24.752;2023-08-24T05:54:17;32.22;;;13.20;;
80231;SDS011;70197;42.124;24.752;2023-08-24T05:56:44;38.35;;;13.60;;
80231;SDS011;70197;42.124;24.752;2023-08-24T05:59:10;34.22;;;14.40;;
80231;SDS011;70197;42.124;24.752;2023-08-24T06:01:36;40.50;;;14.23;;
80231;SDS011;70197;42.124;24.752;2023-08-24T06:04:06;24.75;;;14.27;;
80231;SDS011;70197;42.124;24.752;2023-08-24T06:06:35;41.67;;;14.45;;
80231;SDS011;70197;42.124;24.752;2023-08-24T06:09:01;34.33;;;14.25;;
80231;SDS011;70197;42.124;24.752;2023-08-24T06:11:31;26.73;;;15.02;;
80231;SDS011;70197;42.124;24.752;2023-08-24T06:13:57;36.78;;;16.38;;
80231;SDS011;70197;42.124;24.752;2023-08-24T06:16:23;28.35;;;15.48;;
80231;SDS011;70197;42.124;24.752;2023-08-24T06:18:49;31.25;;;15.43;;
80231;SDS011;70197;42.124;24.752;2023-08-24T06:21:16;28.00;;;14.27;;
80231;SDS011;70197;42.124;24.752;2023-08-24T06:23:41;61.58;;;16.25;;
80231;SDS011;70197;42.124;24.752;2023-08-24T06:26:07;48.38;;;16.13;;
80231;SDS011;70197;42.124;24.752;2023-08-24T06:28:33;34.08;;;15.23;;
80231;SDS011;70197;42.124;24.752;2023-08-24T06:30:59;35.88;;;16.00;;
80231;SDS011;70197;42.124;24.752;2023-08-24T06:33:29;32.17;;;14.57;;
80231;SDS011;70197;42.124;24.752;2023-08-24T06:35:58;36.97;;;14.90;;
80231;SDS011;70197;42.124;24.752;2023-08-24T06:38:25;28.05;;;14.43;;
80231;SDS011;70197;42.124;24.752;2023-08-24T06:40:51;36.70;;;15.38;;
80231;SDS011;70197;42.124;24.752;2023-08-24T06:43:16;37.17;;;14.73;;
80231;SDS011;70197;42.124;24.752;2023-08-24T06:45:43;43.03;;;15.48;;
80231;SDS011;70197;42.124;24.752;2023-08-24T06:48:09;30.58;;;15.20;;
80231;SDS011;70197;42.124;24.752;2023-08-24T06:50:35;39.80;;;16.27;;
80231;SDS011;70197;42.124;24.752;2023-08-24T06:53:02;36.95;;;16.13;;
80231;SDS011;70197;42.124;24.752;2023-08-24T06:55:28;37.33;;;14.90;;
80231;SDS011;70197;42.124;24.752;2023-08-24T06:57:54;30.98;;;14.48;;
80231;SDS011;70197;42.124;24.752;2023-08-24T07:00:20;43.97;;;14.73;;
80231;SDS011;70197;42.124;24.752;2023-08-24T07:02:47;30.92;;;14.98;;
80231;SDS011;70197;42.124;24.752;2023-08-24T07:05:13;35.05;;;12.82;;
80231;SDS011;70197;42.124;24.752;2023-08-24T07:07:39;30.58;;;13.80;;
80231;SDS011;70197;42.124;24.752;2023-08-24T07:10:08;33.05;;;13.85;;
80231;SDS011;70197;42.124;24.752;2023-08-24T07:12:34;23.27;;;12.23;;
80231;SDS011;70197;42.124;24.752;2023-08-24T07:15:00;27.67;;;13.38;;
80231;SDS011;70197;42.124;24.752;2023-08-24T07:17:26;27.77;;;13.07;;
80231;SDS011;70197;42.124;24.752;2023-08-24T07:19:51;21.63;;;12.10;;
80231;SDS011;70197;42.124;24.752;2023-08-24T07:22:17;27.70;;;10.73;;
80231;SDS011;70197;42.124;24.752;2023-08-24T07:24:44;27.02;;;10.80;;
80231;SDS011;70197;42.124;24.752;2023-08-24T07:27:10;17.25;;;10.57;;
80231;SDS011;70197;42.124;24.752;2023-08-24T07:29:35;21.55;;;9.98;;
80231;SDS011;70197;42.124;24.752;2023-08-24T07:32:01;32.97;;;11.70;;
80231;SDS011;70197;42.124;24.752;2023-08-24T07:34:28;22.75;;;10.90;;
80231;SDS011;70197;42.124;24.752;2023-08-24T07:36:54;29.67;;;11.15;;
80231;SDS011;70197;42.124;24.752;2023-08-24T07:39:20;18.35;;;9.95;;
80231;SDS011;70197;42.124;24.752;2023-08-24T07:41:46;29.00;;;11.05;;
80231;SDS011;70197;42.124;24.752;2023-08-24T07:44:11;24.73;;;10.35;;
80231;SDS011;70197;42.124;24.752;2023-08-24T07:46:38;30.10;;;10.93;;
80231;SDS011;70197;42.124;24.752;2023-08-24T07:49:05;31.77;;;11.35;;
80231;SDS011;70197;42.124;24.752;2023-08-24T07:51:32;26.05;;;10.90;;
80231;SDS011;70197;42.124;24.752;2023-08-24T07:53:58;22.25;;;10.65;;
80231;SDS011;70197;42.124;24.752;2023-08-24T07:56:25;20.02;;;10.70;;
80231;SDS011;70197;42.124;24.752;2023-08-24T07:58:50;37.35;;;10.77;;
80231;SDS011;70197;42.124;24.752;2023-08-24T08:01:16;23.15;;;10.48;;
80231;SDS011;70197;42.124;24.752;2023-08-24T08:03:41;74.15;;;13.07;;
80231;SDS011;70197;42.124;24.752;2023-08-24T08:06:07;29.77;;;10.77;;
80231;SDS011;70197;42.124;24.752;2023-08-24T08:08:33;42.60;;;11.27;;
80231;SDS011;70197;42.124;24.752;2023-08-24T08:11:02;37.38;;;11.13;;
80231;SDS011;70197;42.124;24.752;2023-08-24T08:13:28;42.60;;;11.48;;
80231;SDS011;70197;42.124;24.752;2023-08-24T08:16:00;184.80;;;18.92;;
80231;SDS011;70197;42.124;24.752;2023-08-24T08:18:29;30.73;;;9.75;;
80231;SDS011;70197;42.124;24.752;2023-08-24T08:20:56;115.95;;;15.38;;
80231;SDS011;70197;42.124;24.752;2023-08-24T08:23:21;116.20;;;15.32;;
80231;SDS011;70197;42.124;24.752;2023-08-24T08:25:47;59.30;;;10.65;;
80231;SDS011;70197;42.124;24.752;2023-08-24T08:28:12;61.85;;;10.90;;
80231;SDS011;70197;42.124;24.752;2023-08-24T08:30:38;67.28;;;11.52;;
80231;SDS011;70197;42.124;24.752;2023-08-24T08:33:04;30.63;;;8.48;;
80231;SDS011;70197;42.124;24.752;2023-08-24T08:35:29;46.05;;;9.68;;
80231;SDS011;70197;42.124;24.752;2023-08-24T08:37:55;32.40;;;7.65;;
80231;SDS011;70197;42.124;24.752;2023-08-24T08:40:21;41.33;;;9.15;;
80231;SDS011;70197;42.124;24.752;2023-08-24T08:42:54;26.85;;;6.93;;
80231;SDS011;70197;42.124;24.752;2023-08-24T08:45:21;35.53;;;9.00;;
80231;SDS011;70197;42.124;24.752;2023-08-24T08:47:50;40.88;;;9.45;;
80231;SDS011;70197;42.124;24.752;2023-08-24T08:50:18;43.97;;;9.00;;
80231;SDS011;70197;42.124;24.752;2023-08-24T08:52:44;39.08;;;9.02;;
80231;SDS011;70197;42.124;24.752;2023-08-24T08:55:10;22.58;;;7.20;;
80231;SDS011;70197;42.124;24.752;2023-08-24T08:57:36;29.73;;;7.50;;
80231;SDS011;70197;42.124;24.752;2023-08-24T09:00:04;27.48;;;7.85;;
80231;SDS011;70197;42.124;24.752;2023-08-24T09:02:32;142.10;;;29.90;;
80231;SDS011;70197;42.124;24.752;2023-08-24T09:04:58;84.80;;;19.33;;
80231;SDS011;70197;42.124;24.752;2023-08-24T09:07:24;62.22;;;14.93;;
80231;SDS011;70197;42.124;24.752;2023-08-24T09:09:50;45.33;;;11.07;;
80231;SDS011;70197;42.124;24.752;2023-08-24T09:12:16;106.38;;;17.77;;
80231;SDS011;70197;42.124;24.752;2023-08-24T09:14:41;246.73;;;21.35;;
80231;SDS011;70197;42.124;24.752;2023-08-24T09:17:07;120.72;;;13.93;;
80231;SDS011;70197;42.124;24.752;2023-08-24T09:19:33;109.25;;;15.43;;
80231;SDS011;70197;42.124;24.752;2023-08-24T09:22:03;54.60;;;8.98;;
80231;SDS011;70197;42.124;24.752;2023-08-24T09:24:33;16.08;;;6.30;;
80231;SDS011;70197;42.124;24.752;2023-08-24T09:27:00;27.97;;;7.40;;
80231;SDS011;70197;42.124;24.752;2023-08-24T09:29:50;31.23;;;7.50;;
80231;SDS011;70197;42.124;24.752;2023-08-24T09:32:29;28.50;;;7.38;;
80231;SDS011;70197;42.124;24.752;2023-08-24T09:35:01;31.75;;;7.45;;
80231;SDS011;70197;42.124;24.752;2023-08-24T09:37:35;23.08;;;6.30;;
80231;SDS011;70197;42.124;24.752;2023-08-24T09:40:04;13.38;;;5.85;;
80231;SDS011;70197;42.124;24.752;2023-08-24T09:42:37;15.10;;;5.95;;
80231;SDS011;70197;42.124;24.752;2023-08-24T09:45:04;19.42;;;5.75;;
80231;SDS011;70197;42.124;24.752;2023-08-24T09:47:30;16.30;;;5.70;;
80231;SDS011;70197;42.124;24.752;2023-08-24T09:49:56;12.15;;;5.45;;
80231;SDS011;70197;42.124;24.752;2023-08-24T09:52:22;7.55;;;5.30;;
80231;SDS011;70197;42.124;24.752;2023-08-24T09:54:54;12.93;;;5.68;;
80231;SDS011;70197;42.124;24.752;2023-08-24T09:57:21;19.60;;;5.82;;
80231;SDS011;70197;42.124;24.752;2023-08-24T09:59:46;8.10;;;5.32;;
80231;SDS011;70197;42.124;24.752;2023-08-24T10:02:16;15.50;;;6.18;;
80231;SDS011;70197;42.124;24.752;2023-08-24T10:04:46;8.55;;;5.65;;
80231;SDS011;70197;42.124;24.752;2023-08-24T10:07:14;20.65;;;6.30;;
80231;SDS011;70197;42.124;24.752;2023-08-24T10:10:07;717.33;;;182.55;;
80231;SDS011;70197;42.124;24.752;2023-08-24T10:12:36;404.63;;;82.00;;
80231;SDS011;70197;42.124;24.752;2023-08-24T10:15:09;211.07;;;43.08;;
80231;SDS011;70197;42.124;24.752;2023-08-24T10:17:38;107.90;;;25.20;;
80231;SDS011;70197;42.124;24.752;2023-08-24T10:20:05;69.03;;;18.48;;
80231;SDS011;70197;42.124;24.752;2023-08-24T10:22:34;48.92;;;15.75;;
80231;SDS011;70197;42.124;24.752;2023-08-24T10:25:01;58.15;;;16.35;;
80231;SDS011;70197;42.124;24.752;2023-08-24T10:27:28;35.45;;;13.05;;
80231;SDS011;70197;42.124;24.752;2023-08-24T10:29:55;24.77;;;11.07;;
80231;SDS011;70197;42.124;24.752;2023-08-24T10:32:21;23.67;;;10.82;;
80231;SDS011;70197;42.124;24.752;2023-08-24T10:34:47;16.67;;;9.30;;
80231;SDS011;70197;42.124;24.752;2023-08-24T10:37:13;19.45;;;9.75;;
80231;SDS011;70197;42.124;24.752;2023-08-24T10:39:45;21.77;;;10.65;;
80231;SDS011;70197;42.124;24.752;2023-08-24T10:42:12;22.38;;;10.30;;
80231;SDS011;70197;42.124;24.752;2023-08-24T10:44:39;17.20;;;9.63;;
80231;SDS011;70197;42.124;24.752;2023-08-24T10:52:23;21.98;;;7.38;;
80231;SDS011;70197;42.124;24.752;2023-08-24T10:54:53;15.80;;;8.68;;
80231;SDS011;70197;42.124;24.752;2023-08-24T11:00:05;13.18;;;9.00;;
80231;SDS011;70197;42.124;24.752;2023-08-24T11:02:47;15.02;;;9.27;;
80231;SDS011;70197;42.124;24.752;2023-08-24T11:07:47;16.90;;;8.20;;
80231;SDS011;70197;42.124;24.752;2023-08-24T11:10:14;14.23;;;8.23;;
80231;SDS011;70197;42.124;24.752;2023-08-24T11:21:00;38.60;;;10.25;;
80231;SDS011;70197;42.124;24.752;2023-08-24T11:23:27;27.88;;;9.55;;
80231;SDS011;70197;42.124;24.752;2023-08-24T11:25:54;21.25;;;9.57;;
80231;SDS011;70197;42.124;24.752;2023-08-24T11:28:23;14.85;;;9.10;;
80231;SDS011;70197;42.124;24.752;2023-08-24T11:30:50;21.95;;;9.93;;
80231;SDS011;70197;42.124;24.752;2023-08-24T11:33:39;27.85;;;9.93;;
80231;SDS011;70197;42.124;24.752;2023-08-24T11:36:03;20.27;;;8.77;;
80231;SDS011;70197;42.124;24.752;2023-08-24T11:38:36;21.23;;;8.88;;
80231;SDS011;70197;42.124;24.752;2023-08-24T11:43:44;20.08;;;9.13;;
80231;SDS011;70197;42.124;24.752;2023-08-24T11:46:12;18.75;;;9.35;;
80231;SDS011;70197;42.124;24.752;2023-08-24T11:48:40;23.70;;;9.07;;
80231;SDS011;70197;42.124;24.752;2023-08-24T11:51:09;15.00;;;8.68;;
80231;SDS011;70197;42.124;24.752;2023-08-24T11:53:40;24.25;;;9.20;;
80231;SDS011;70197;42.124;24.752;2023-08-24T11:56:13;12.57;;;9.05;;
80231;SDS011;70197;42.124;24.752;2023-08-24T11:58:39;16.85;;;10.27;;
80231;SDS011;70197;42.124;24.752;2023-08-24T12:01:06;28.73;;;10.20;;
80231;SDS011;70197;42.124;24.752;2023-08-24T12:03:34;17.88;;;8.40;;
80231;SDS011;70197;42.124;24.752;2023-08-24T12:06:10;16.90;;;9.65;;
80231;SDS011;70197;42.124;24.752;2023-08-24T12:08:40;36.33;;;9.32;;
80231;SDS011;70197;42.124;24.752;2023-08-24T12:11:10;20.13;;;8.23;;
80231;SDS011;70197;42.124;24.752;2023-08-24T12:13:37;12.55;;;8.82;;
80231;SDS011;70197;42.124;24.752;2023-08-24T12:16:04;17.40;;;8.88;;
80231;SDS011;70197;42.124;24.752;2023-08-24T12:18:30;17.42;;;8.55;;
80231;SDS011;70197;42.124;24.752;2023-08-24T12:20:56;23.90;;;8.98;;
80231;SDS011;70197;42.124;24.752;2023-08-24T12:23:26;15.55;;;8.35;;
80231;SDS011;70197;42.124;24.752;2023-08-24T12:25:53;19.25;;;9.15;;
80231;SDS011;70197;42.124;24.752;2023-08-24T12:28:20;24.83;;;9.07;;
80231;SDS011;70197;42.124;24.752;2023-08-24T12:30:47;14.73;;;8.90;;
80231;SDS011;70197;42.124;24.752;2023-08-24T12:33:27;19.80;;;8.85;;
80231;SDS011;70197;42.124;24.752;2023-08-24T12:35:53;17.20;;;9.20;;
80231;SDS011;70197;42.124;24.752;2023-08-24T12:38:20;22.95;;;8.90;;
80231;SDS011;70197;42.124;24.752;2023-08-24T12:40:46;15.00;;;8.65;;
80231;SDS011;70197;42.124;24.752;2023-08-24T12:43:13;12.43;;;8.70;;
80231;SDS011;70197;42.124;24.752;2023-08-24T12:45:39;21.33;;;9.30;;
80231;SDS011;70197;42.124;24.752;2023-08-24T12:48:05;16.42;;;8.90;;
80231;SDS011;70197;42.124;24.752;2023-08-24T12:50:32;14.50;;;8.45;;
80231;SDS011;70197;42.124;24.752;2023-08-24T12:52:58;12.98;;;8.43;;
80231;SDS011;70197;42.124;24.752;2023-08-24T12:55:28;15.32;;;9.43;;
80231;SDS011;70197;42.124;24.752;2023-08-24T12:57:54;15.77;;;8.88;;
80231;SDS011;70197;42.124;24.752;2023-08-24T13:00:20;16.05;;;8.55;;
80231;SDS011;70197;42.124;24.752;2023-08-24T13:02:47;17.38;;;8.75;;
80231;SDS011;70197;42.124;24.752;2023-08-24T13:05:13;11.90;;;8.45;;
80231;SDS011;70197;42.124;24.752;2023-08-24T13:07:39;15.02;;;9.00;;
80231;SDS011;70197;42.124;24.752;2023-08-24T13:10:05;18.25;;;9.15;;
80231;SDS011;70197;42.124;24.752;2023-08-24T13:12:31;10.90;;;8.55;;
80231;SDS011;70197;42.124;24.752;2023-08-24T13:14:57;25.38;;;8.40;;
80231;SDS011;70197;42.124;24.752;2023-08-24T13:17:23;17.15;;;9.13;;
80231;SDS011;70197;42.124;24.752;2023-08-24T13:19:48;19.00;;;8.50;;
80231;SDS011;70197;42.124;24.752;2023-08-24T13:22:14;18.60;;;9.00;;
80231;SDS011;70197;42.124;24.752;2023-08-24T13:24:40;17.95;;;9.50;;
80231;SDS011;70197;42.124;24.752;2023-08-24T13:27:08;14.38;;;9.13;;
80231;SDS011;70197;42.124;24.752;2023-08-24T13:29:35;14.98;;;9.05;;
80231;SDS011;70197;42.124;24.752;2023-08-24T13:32:01;14.65;;;8.80;;
80231;SDS011;70197;42.124;24.752;2023-08-24T13:34:27;16.02;;;8.15;;
80231;SDS011;70197;42.124;24.752;2023-08-24T13:36:53;10.95;;;8.52;;
80231;SDS011;70197;42.124;24.752;2023-08-24T13:39:18;12.18;;;9.25;;
80231;SDS011;70197;42.124;24.752;2023-08-24T13:41:44;18.55;;;10.05;;
80231;SDS011;70197;42.124;24.752;2023-08-24T13:44:10;17.58;;;9.35;;
80231;SDS011;70197;42.124;24.752;2023-08-24T13:46:35;16.95;;;9.15;;
80231;SDS011;70197;42.124;24.752;2023-08-24T13:49:01;17.88;;;9.52;;
80231;SDS011;70197;42.124;24.752;2023-08-24T13:51:27;11.13;;;8.50;;
80231;SDS011;70197;42.124;24.752;2023-08-24T13:53:53;15.07;;;8.95;;
80231;SDS011;70197;42.124;24.752;2023-08-24T13:56:19;20.48;;;9.30;;
80231;SDS011;70197;42.124;24.752;2023-08-24T13:58:45;15.65;;;9.77;;
80231;SDS011;70197;42.124;24.752;2023-08-24T14:01:11;28.67;;;11.75;;
80231;SDS011;70197;42.124;24.752;2023-08-24T14:03:38;15.43;;;9.45;;
80231;SDS011;70197;42.124;24.752;2023-08-24T14:06:05;23.83;;;9.63;;
80231;SDS011;70197;42.124;24.752;2023-08-24T14:08:31;27.23;;;11.40;;
80231;SDS011;70197;42.124;24.752;2023-08-24T14:10:56;24.50;;;10.10;;
80231;SDS011;70197;42.124;24.752;2023-08-24T14:13:22;24.35;;;11.40;;
80231;SDS011;70197;42.124;24.752;2023-08-24T14:15:50;22.58;;;11.48;;
80231;SDS011;70197;42.124;24.752;2023-08-24T14:18:16;22.98;;;10.57;;
80231;SDS011;70197;42.124;24.752;2023-08-24T14:20:42;23.80;;;11.07;;
80231;SDS011;70197;42.124;24.752;2023-08-24T14:23:08;25.88;;;12.27;;
80231;SDS011;70197;42.124;24.752;2023-08-24T14:25:34;29.50;;;13.10;;
80231;SDS011;70197;42.124;24.752;2023-08-24T14:27:59;193.52;;;34.95;;
80231;SDS011;70197;42.124;24.752;2023-08-24T14:30:25;149.27;;;29.25;;
80231;SDS011;70197;42.124;24.752;2023-08-24T14:32:51;311.63;;;53.65;;
80231;SDS011;70197;42.124;24.752;2023-08-24T14:35:17;385.92;;;63.22;;
80231;SDS011;70197;42.124;24.752;2023-08-24T14:37:43;300.27;;;49.88;;
80231;SDS011;70197;42.124;24.752;2023-08-24T14:40:08;282.23;;;48.53;;
80231;SDS011;70197;42.124;24.752;2023-08-24T14:42:35;281.55;;;51.45;;
80231;SDS011;70197;42.124;24.752;2023-08-24T14:45:01;188.27;;;39.08;;
80231;SDS011;70197;42.124;24.752;2023-08-24T14:47:26;192.63;;;38.70;;